EDMA/AGB METAR and TAF weather

Enter ICAO airport designator
Station Type Date Time Source
EDMA METAR 2018/10/22 15:50 UTC NOAA

EDMA 221550Z 35003KT CAVOK 13/04 Q1028


Station Type Date Time Source
EDMA Decoded METAR 2018/10/22 15:50 UTC NOAA

Augsburg, Germany (EDMA) 48-26N 010-56E 463M
Oct 22, 2018 - 11:50 AM EDT / 2018.10.22 1550 UTC
Wind: from the N (350 degrees) at 3 MPH (3 KT):0
Visibility: greater than 7 mile(s):0
Temperature: 55 F (13 C)
Dew Point: 39 F (4 C)
Relative Humidity: 54%
Pressure (altimeter): 30.36 in. Hg (1028 hPa)
ob: EDMA 221550Z 35003KT CAVOK 13/04 Q1028
cycle: 16

Station Type Date Time Source
EDMA TAF 2010/02/22 13:50 UTC NOAA

METAR EDMA 221350Z 23006KT CAVOK 10/02 Q0996


Example: see airport list